createdAt,value
2022-10-23T00:01:38.832Z,10.42
2022-10-23T00:04:20.340Z,10.45
2022-10-23T00:06:50.637Z,10.46
2022-10-23T00:09:23.076Z,10.48
2022-10-23T00:11:53.536Z,10.49
2022-10-23T00:14:23.260Z,10.50
2022-10-23T00:16:50.710Z,10.51
2022-10-23T00:19:19.910Z,10.51
2022-10-23T00:21:48.183Z,10.52
2022-10-23T00:24:18.512Z,10.53
2022-10-23T00:26:48.185Z,10.54
2022-10-23T00:29:15.672Z,10.53
2022-10-23T00:31:43.510Z,10.53
2022-10-23T00:34:11.159Z,10.53
2022-10-23T00:36:39.483Z,10.55
2022-10-23T00:39:06.944Z,10.53
2022-10-23T00:41:34.863Z,10.57
2022-10-23T00:44:04.428Z,10.57
2022-10-23T00:46:32.706Z,10.58
2022-10-23T00:49:01.353Z,10.58
2022-10-23T00:51:32.535Z,10.59
2022-10-23T00:54:22.965Z,10.57
2022-10-23T00:56:51.198Z,10.57
2022-10-23T00:59:18.413Z,10.57
2022-10-23T01:01:46.020Z,10.56
2022-10-23T01:04:13.460Z,10.58
2022-10-23T01:07:03.415Z,10.59
2022-10-23T01:09:34.152Z,10.60
2022-10-23T01:12:10.969Z,10.59
2022-10-23T01:14:59.687Z,10.61
2022-10-23T01:17:42.305Z,10.60
2022-10-23T01:20:14.576Z,10.60
2022-10-23T01:23:18.738Z,10.61
2022-10-23T01:25:56.283Z,10.66
2022-10-23T01:28:34.081Z,10.62
2022-10-23T01:31:02.629Z,10.64
2022-10-23T01:33:36.778Z,10.66
2022-10-23T01:36:24.551Z,10.66
2022-10-23T01:38:52.083Z,10.65
2022-10-23T01:41:25.878Z,10.67
2022-10-23T01:44:07.417Z,10.69
2022-10-23T01:46:38.135Z,10.69
2022-10-23T01:49:08.530Z,10.70
2022-10-23T01:51:37.249Z,10.70
2022-10-23T01:54:07.949Z,10.69
2022-10-23T01:56:40.271Z,10.69
2022-10-23T01:59:13.762Z,10.68
2022-10-23T02:01:45.587Z,10.68
2022-10-23T02:04:15.647Z,10.70
2022-10-23T02:06:49.017Z,10.70
2022-10-23T02:09:17.603Z,10.70
2022-10-23T02:11:57.937Z,10.72
2022-10-23T04:30:42.827Z,11.24
2022-10-23T04:33:10.977Z,11.27
2022-10-23T04:35:38.235Z,11.33
2022-10-23T04:38:08.251Z,11.37
2022-10-23T04:40:36.558Z,11.42
2022-10-23T04:43:15.710Z,11.46
2022-10-23T04:45:46.732Z,11.49
2022-10-23T04:48:16.115Z,11.53
2022-10-23T04:50:43.602Z,11.53
2022-10-23T04:53:11.485Z,11.57
2022-10-23T04:55:53.432Z,11.60
2022-10-23T04:58:21.213Z,11.63
2022-10-23T05:00:51.035Z,11.65
2022-10-23T05:03:22.218Z,11.68
2022-10-23T05:05:53.924Z,11.73
2022-10-23T05:08:35.573Z,11.79
2022-10-23T05:11:05.588Z,11.85
2022-10-23T05:13:39.632Z,11.93
2022-10-23T05:16:13.436Z,11.99
2022-10-23T05:18:48.175Z,12.09
2022-10-23T05:21:27.706Z,12.17
2022-10-23T05:23:55.610Z,12.26
2022-10-23T05:26:22.933Z,12.34
2022-10-23T05:28:50.102Z,12.39
2022-10-23T05:31:25.211Z,12.43
2022-10-23T05:33:57.657Z,12.46
2022-10-23T05:36:25.868Z,12.48
2022-10-23T05:38:53.687Z,12.49
2022-10-23T05:41:20.944Z,12.50
2022-10-23T05:43:48.681Z,12.51
2022-10-23T05:46:16.048Z,12.53
2022-10-23T05:48:46.306Z,12.55
2022-10-23T05:51:20.214Z,12.56
2022-10-23T05:53:51.523Z,12.59
2022-10-23T05:56:20.817Z,12.62
2022-10-23T05:58:49.398Z,12.63
2022-10-23T06:01:18.543Z,12.70
2022-10-23T06:03:46.141Z,12.73
2022-10-23T06:06:22.096Z,12.79
2022-10-23T06:08:49.356Z,12.82
2022-10-23T06:11:16.661Z,12.88
2022-10-23T06:13:45.535Z,12.94
2022-10-23T06:16:20.391Z,13.01
2022-10-23T06:18:47.905Z,13.09
2022-10-23T06:21:15.821Z,13.19
2022-10-23T06:23:46.774Z,13.27
2022-10-23T06:26:15.957Z,13.32
2022-10-23T06:28:43.772Z,13.39
2022-10-23T06:31:13.534Z,13.44
2022-10-23T06:33:41.851Z,13.48
2022-10-23T06:36:10.854Z,13.59
2022-10-23T06:38:41.703Z,13.61
2022-10-23T06:41:14.910Z,13.63
2022-10-23T06:43:43.250Z,13.69
2022-10-23T06:46:10.911Z,13.71
2022-10-23T06:48:38.401Z,13.72
2022-10-23T06:51:08.246Z,13.73
2022-10-23T06:53:37.644Z,13.73
2022-10-23T06:56:06.780Z,13.72
2022-10-23T06:58:35.125Z,13.74
2022-10-23T07:01:05.080Z,13.73
2022-10-23T07:03:32.911Z,13.75
2022-10-23T07:06:01.928Z,13.77
2022-10-23T07:08:29.721Z,13.81
2022-10-23T07:10:57.951Z,13.83
2022-10-23T07:13:25.548Z,13.86
2022-10-23T07:15:52.850Z,13.87
2022-10-23T07:18:20.358Z,13.86
2022-10-23T07:20:49.520Z,13.85
2022-10-23T07:23:17.422Z,13.81
2022-10-23T07:25:45.285Z,13.79
2022-10-23T07:28:12.599Z,13.76
2022-10-23T07:30:41.427Z,13.76
2022-10-23T07:33:11.242Z,13.76
2022-10-23T07:35:42.835Z,13.78
2022-10-23T07:38:10.160Z,13.76
2022-10-23T07:40:38.217Z,13.72
2022-10-23T07:43:05.617Z,13.75
2022-10-23T07:45:33.004Z,13.77
2022-10-23T07:48:01.005Z,13.79
2022-10-23T07:50:28.498Z,13.83
2022-10-23T07:52:57.253Z,13.84
2022-10-23T07:55:24.779Z,13.75
2022-10-23T07:57:52.719Z,13.66
2022-10-23T08:00:21.410Z,13.57
2022-10-23T08:02:50.392Z,13.47
2022-10-23T08:05:19.727Z,13.41
2022-10-23T08:07:47.260Z,13.32
2022-10-23T08:10:21.633Z,13.19
2022-10-23T08:12:49.000Z,13.13
2022-10-23T08:15:16.497Z,13.07
2022-10-23T08:17:45.714Z,13.02
2022-10-23T08:20:13.962Z,12.96
2022-10-23T08:22:41.513Z,12.95
2022-10-23T08:25:12.340Z,12.97
2022-10-23T08:27:40.642Z,12.96
2022-10-23T08:30:10.692Z,12.97
2022-10-23T08:32:38.544Z,13.01
2022-10-23T08:35:06.745Z,13.04
2022-10-23T08:37:34.414Z,13.09
2022-10-23T08:40:03.313Z,13.18
2022-10-23T08:42:31.000Z,13.30
2022-10-23T08:45:27.182Z,13.42
2022-10-23T08:48:13.050Z,13.48
2022-10-23T08:50:44.454Z,13.52
2022-10-23T08:53:26.293Z,13.57
2022-10-23T08:56:18.360Z,13.61
2022-10-23T08:59:00.207Z,13.70
2022-10-23T09:01:43.668Z,13.67
2022-10-23T09:04:13.714Z,13.70
2022-10-23T09:07:00.547Z,13.69
2022-10-23T09:09:47.305Z,13.56
2022-10-23T09:12:22.008Z,13.37
2022-10-23T09:14:58.458Z,13.22
2022-10-23T09:17:34.217Z,13.16
2022-10-23T09:20:21.291Z,13.12
2022-10-23T09:22:58.717Z,13.06
2022-10-23T09:25:34.085Z,13.03
2022-10-23T09:28:05.249Z,12.94
2022-10-23T09:30:39.185Z,12.90
2022-10-23T09:33:23.889Z,12.82
2022-10-23T09:36:14.943Z,12.76
2022-10-23T09:38:45.484Z,12.71
2022-10-23T09:41:18.566Z,12.67
2022-10-23T09:43:46.235Z,12.67
2022-10-23T09:46:13.806Z,12.58
2022-10-23T09:48:44.827Z,12.48
2022-10-23T09:51:21.763Z,12.48
2022-10-23T09:53:59.246Z,12.45
2022-10-23T09:56:31.104Z,12.42
2022-10-23T09:59:13.221Z,12.46
2022-10-23T10:01:55.291Z,12.48
2022-10-23T10:04:41.953Z,12.49
2022-10-23T10:07:24.905Z,12.48
2022-10-23T10:09:56.895Z,12.46
2022-10-23T10:12:31.794Z,12.43
2022-10-23T10:15:10.324Z,12.41
2022-10-23T10:17:51.721Z,12.38
2022-10-23T10:20:41.740Z,12.40
2022-10-23T10:23:27.385Z,12.43
2022-10-23T10:26:15.794Z,12.40
2022-10-23T10:29:18.538Z,12.43
2022-10-23T10:32:05.023Z,12.51
2022-10-23T10:34:50.484Z,12.58
2022-10-23T10:37:22.776Z,12.72
2022-10-23T10:40:06.443Z,12.78
2022-10-23T10:43:11.300Z,12.80
2022-10-23T10:45:42.491Z,12.83
2022-10-23T10:48:14.082Z,12.79
2022-10-23T10:50:55.352Z,12.74
2022-10-23T10:53:41.135Z,12.72
2022-10-23T10:56:12.796Z,12.72
2022-10-23T10:58:41.733Z,12.69
2022-10-23T11:01:36.482Z,12.67
2022-10-23T11:04:24.574Z,12.66
2022-10-23T11:06:56.406Z,12.65
2022-10-23T11:09:33.740Z,12.69
2022-10-23T11:12:07.168Z,12.72
2022-10-23T11:14:34.910Z,12.76
2022-10-23T11:17:17.246Z,12.83
2022-10-23T11:19:58.123Z,12.90
2022-10-23T11:22:37.805Z,12.94
2022-10-23T11:25:26.956Z,12.94
2022-10-23T11:28:15.780Z,12.99
2022-10-23T11:31:01.418Z,13.04
2022-10-23T11:33:38.390Z,13.12
2022-10-23T11:36:17.247Z,13.21
2022-10-23T11:38:52.418Z,13.28
2022-10-23T11:41:29.657Z,13.31
2022-10-23T11:44:04.708Z,13.33
2022-10-23T11:46:38.494Z,13.36
2022-10-23T11:49:06.938Z,13.38
2022-10-23T11:51:41.811Z,13.40
2022-10-23T11:54:13.699Z,13.44
2022-10-23T11:57:17.321Z,13.43
2022-10-23T11:59:47.590Z,13.44
2022-10-23T12:02:32.083Z,13.43
2022-10-23T12:05:26.348Z,13.41
2022-10-23T12:07:57.782Z,13.39
2022-10-23T12:10:34.696Z,13.37
2022-10-23T12:13:06.399Z,13.38
2022-10-23T12:15:37.217Z,13.37
2022-10-23T12:18:14.792Z,13.36
2022-10-23T12:20:56.603Z,13.35
2022-10-23T12:23:30.411Z,13.32
2022-10-23T12:26:21.995Z,13.27
2022-10-23T12:29:21.039Z,13.23
2022-10-23T12:32:06.685Z,13.17
2022-10-23T12:34:45.625Z,13.10
2022-10-23T12:37:51.654Z,13.07
2022-10-23T12:40:19.356Z,13.00
2022-10-23T12:42:52.904Z,12.94
2022-10-23T12:45:25.998Z,12.89
2022-10-23T12:47:53.682Z,12.86
2022-10-23T12:50:25.260Z,12.83
2022-10-23T12:53:01.128Z,12.79
2022-10-23T12:55:33.639Z,12.75
2022-10-23T12:58:03.557Z,12.71
2022-10-23T13:00:31.234Z,12.69
2022-10-23T13:03:03.423Z,12.64
2022-10-23T13:05:33.592Z,12.60
2022-10-23T13:08:04.195Z,12.55
2022-10-23T13:10:33.420Z,12.54
2022-10-23T13:13:05.316Z,12.49
2022-10-23T13:15:51.510Z,12.46
2022-10-23T13:18:20.116Z,12.40
2022-10-23T13:20:53.900Z,12.39
2022-10-23T13:23:34.870Z,12.37
2022-10-23T13:26:19.838Z,12.35
2022-10-23T13:28:47.488Z,12.34
2022-10-23T13:31:15.265Z,12.31
2022-10-23T13:33:45.995Z,12.30
2022-10-23T13:36:16.944Z,12.28
2022-10-23T13:39:00.800Z,12.29
2022-10-23T13:41:31.183Z,12.28
2022-10-23T13:43:58.592Z,12.24
2022-10-23T13:46:26.820Z,12.21
2022-10-23T13:48:55.257Z,12.20
2022-10-23T13:51:29.029Z,12.18
2022-10-23T13:53:58.755Z,12.18
2022-10-23T13:56:30.366Z,12.17
2022-10-23T13:58:57.865Z,12.17
2022-10-23T14:01:30.872Z,12.16
2022-10-23T14:03:59.913Z,12.17
2022-10-23T14:06:27.470Z,12.17
2022-10-23T14:08:54.923Z,12.16
2022-10-23T14:11:23.945Z,12.18
2022-10-23T14:13:54.352Z,12.19
2022-10-23T14:16:21.877Z,12.20
2022-10-23T14:18:49.525Z,12.21
2022-10-23T14:21:22.922Z,12.21
2022-10-23T14:23:51.935Z,12.21
2022-10-23T14:26:22.629Z,12.23
2022-10-23T14:28:53.765Z,12.21
2022-10-23T14:31:23.577Z,12.21
2022-10-23T14:33:58.664Z,12.22
2022-10-23T14:36:30.981Z,12.21
2022-10-23T14:39:08.363Z,12.21
2022-10-23T14:41:35.925Z,12.20
2022-10-23T14:44:03.201Z,12.21
2022-10-23T14:46:31.145Z,12.19
2022-10-23T14:49:02.288Z,12.18
2022-10-23T14:51:30.626Z,12.18
2022-10-23T14:54:01.978Z,12.17
2022-10-23T14:56:32.161Z,12.17
2022-10-23T14:59:02.973Z,12.17
2022-10-23T15:01:45.104Z,12.15
2022-10-23T15:04:19.298Z,12.16
2022-10-23T15:06:47.382Z,12.09
2022-10-23T15:09:15.659Z,12.08
2022-10-23T15:11:43.043Z,12.04
2022-10-23T15:14:12.306Z,12.02
2022-10-23T15:16:42.654Z,11.99
2022-10-23T15:19:15.285Z,12.00
2022-10-23T15:21:47.503Z,11.98
2022-10-23T15:24:17.038Z,11.98
2022-10-23T15:26:45.191Z,11.93
2022-10-23T15:29:14.976Z,11.94
2022-10-23T15:31:48.550Z,11.92
2022-10-23T15:34:21.279Z,11.90
2022-10-23T15:36:49.430Z,11.87
2022-10-23T15:39:19.744Z,11.84
2022-10-23T15:41:47.607Z,11.82
2022-10-23T15:44:19.769Z,11.78
2022-10-23T15:46:47.242Z,11.76
2022-10-23T15:49:15.054Z,11.75
2022-10-23T15:51:42.912Z,11.73
2022-10-23T15:54:17.132Z,11.70
2022-10-23T15:56:46.028Z,11.70
2022-10-23T15:59:13.808Z,11.68
2022-10-23T16:01:41.841Z,11.66
2022-10-23T16:04:09.621Z,11.66
2022-10-23T16:06:37.637Z,11.62
2022-10-23T16:09:05.054Z,11.62
2022-10-23T16:11:35.730Z,11.63
2022-10-23T16:14:04.299Z,11.65
2022-10-23T16:16:32.798Z,11.63
2022-10-23T16:19:01.810Z,11.63
2022-10-23T16:21:32.119Z,11.62
2022-10-23T16:24:03.575Z,11.62
2022-10-23T16:26:31.743Z,11.62
2022-10-23T16:29:03.029Z,11.64
2022-10-23T16:31:31.274Z,11.64
2022-10-23T16:34:00.535Z,11.62
2022-10-23T16:36:29.099Z,11.62
2022-10-23T16:38:57.228Z,11.64
2022-10-23T16:41:24.510Z,11.62
2022-10-23T16:43:52.082Z,11.63
2022-10-23T16:46:21.137Z,11.62
2022-10-23T16:48:52.993Z,11.64
2022-10-23T16:51:25.248Z,11.68
2022-10-23T16:53:53.366Z,11.72
2022-10-23T16:56:23.252Z,11.78
2022-10-23T16:58:50.636Z,11.86
2022-10-23T17:01:21.068Z,11.91
2022-10-23T17:03:52.742Z,11.96
2022-10-23T17:06:31.805Z,12.01
2022-10-23T17:09:06.336Z,12.07
2022-10-23T17:11:35.771Z,12.05
2022-10-23T17:14:21.351Z,12.09
2022-10-23T17:16:51.424Z,12.06
2022-10-23T17:19:43.674Z,12.09
2022-10-23T17:22:12.698Z,12.02
2022-10-23T17:24:41.598Z,12.04
2022-10-23T17:27:09.350Z,12.04
2022-10-23T17:29:36.795Z,12.03
2022-10-23T17:32:04.319Z,12.06
2022-10-23T17:34:36.257Z,12.05
2022-10-23T17:37:03.947Z,12.07
2022-10-23T17:39:31.350Z,12.03
2022-10-23T17:41:59.459Z,12.04
2022-10-23T17:44:29.159Z,12.05
2022-10-23T17:46:56.819Z,12.07
2022-10-23T17:49:33.743Z,12.08
2022-10-23T17:52:03.689Z,12.06
2022-10-23T17:54:30.949Z,12.06
2022-10-23T17:56:58.398Z,12.09
2022-10-23T17:59:28.763Z,12.08
2022-10-23T18:01:58.857Z,12.09
2022-10-23T18:04:29.466Z,12.07
2022-10-23T18:06:57.023Z,12.04
2022-10-23T18:09:24.478Z,12.04
2022-10-23T18:11:52.885Z,12.01
2022-10-23T18:14:26.184Z,12.01
2022-10-23T18:16:55.897Z,12.04
2022-10-23T18:19:23.708Z,12.03
2022-10-23T18:21:50.874Z,12.04
2022-10-23T18:24:19.820Z,12.03
2022-10-23T18:26:48.288Z,12.03
2022-10-23T18:29:17.504Z,12.02
2022-10-23T18:31:45.462Z,12.04
2022-10-23T18:34:21.333Z,12.04
2022-10-23T18:36:49.289Z,12.07
2022-10-23T18:39:22.290Z,12.07
2022-10-23T18:41:55.122Z,12.07
2022-10-23T18:44:23.581Z,12.06
2022-10-23T18:46:51.667Z,12.06
2022-10-23T18:49:19.501Z,12.05
2022-10-23T18:51:47.313Z,12.07
2022-10-23T18:54:17.113Z,12.03
2022-10-23T18:56:44.649Z,12.03
2022-10-23T18:59:14.952Z,12.03
2022-10-23T19:01:42.383Z,12.02
2022-10-23T19:04:15.830Z,12.03
2022-10-23T19:06:44.980Z,12.01
2022-10-23T19:09:16.553Z,12.00
2022-10-23T19:11:46.552Z,12.02
2022-10-23T19:14:13.990Z,12.02
2022-10-23T19:17:21.818Z,12.01
2022-10-23T19:19:52.541Z,12.01
2022-10-23T19:22:20.246Z,12.04
2022-10-23T19:24:58.048Z,12.02
2022-10-23T19:27:26.333Z,12.06
2022-10-23T19:29:54.584Z,12.06
2022-10-23T19:32:22.543Z,12.04
2022-10-23T19:34:50.935Z,12.05
2022-10-23T19:37:18.213Z,12.04
2022-10-23T19:39:45.520Z,12.06
2022-10-23T19:42:12.768Z,12.06
2022-10-23T19:44:40.012Z,12.04
2022-10-23T19:47:08.069Z,12.01
2022-10-23T19:49:35.425Z,12.03
2022-10-23T19:52:02.670Z,12.03
2022-10-23T19:54:31.552Z,12.01
2022-10-23T19:56:59.470Z,12.04
2022-10-23T19:59:26.824Z,11.99
2022-10-23T20:01:54.158Z,12.03
2022-10-23T20:04:21.437Z,12.03
2022-10-23T20:06:48.684Z,12.03
2022-10-23T20:09:18.705Z,12.07
2022-10-23T20:11:51.272Z,12.08
2022-10-23T20:14:18.859Z,12.09
2022-10-23T20:16:48.605Z,12.11
2022-10-23T20:19:19.588Z,12.13
2022-10-23T20:21:47.977Z,12.13
2022-10-23T20:24:19.379Z,12.15
2022-10-23T20:26:50.456Z,12.15
2022-10-23T20:29:18.544Z,12.16
2022-10-23T20:31:48.473Z,12.14
2022-10-23T20:34:16.056Z,12.15
2022-10-23T20:36:48.698Z,12.17
2022-10-23T20:39:24.578Z,12.16
2022-10-23T20:41:52.238Z,12.17
2022-10-23T20:44:19.822Z,12.16
2022-10-23T20:46:48.781Z,12.16
2022-10-23T20:49:16.433Z,12.17
2022-10-23T20:51:45.440Z,12.16
2022-10-23T20:54:14.197Z,12.14
2022-10-23T20:56:42.443Z,12.15
2022-10-23T20:59:15.022Z,12.17
2022-10-23T21:01:45.100Z,12.16
2022-10-23T21:04:13.935Z,12.15
2022-10-23T21:07:04.495Z,12.15
2022-10-23T21:09:30.303Z,12.09
2022-10-23T21:11:59.113Z,12.10
2022-10-23T21:14:28.884Z,12.09
2022-10-23T21:16:56.918Z,12.06
2022-10-23T21:19:25.163Z,12.08
2022-10-23T21:21:52.576Z,12.06
2022-10-23T21:24:21.377Z,12.07
2022-10-23T21:26:48.677Z,12.07
2022-10-23T21:29:20.174Z,12.07
2022-10-23T21:31:55.599Z,12.08
2022-10-23T21:34:24.434Z,12.05
2022-10-23T21:39:39.390Z,11.97
2022-10-23T21:42:06.658Z,11.88
2022-10-23T21:44:34.693Z,11.83
2022-10-23T21:47:02.208Z,11.74
2022-10-23T21:49:29.778Z,11.70
2022-10-23T21:51:57.176Z,11.63
2022-10-23T21:54:24.416Z,11.55
2022-10-23T21:56:53.820Z,11.51
2022-10-23T21:59:24.372Z,11.47
2022-10-23T22:01:53.194Z,11.43
2022-10-23T22:04:20.630Z,11.36
2022-10-23T22:06:49.802Z,11.31
2022-10-23T22:09:20.181Z,11.29
2022-10-23T22:11:52.665Z,11.23
2022-10-23T22:14:20.021Z,11.24
2022-10-23T22:16:48.345Z,11.28
2022-10-23T22:19:17.123Z,11.26
2022-10-23T22:21:44.744Z,11.26
2022-10-23T22:24:12.762Z,11.31
2022-10-23T22:26:42.941Z,11.28
2022-10-23T22:29:13.206Z,11.28
2022-10-23T22:31:44.224Z,11.28
2022-10-23T22:34:25.357Z,11.33
2022-10-23T22:37:01.758Z,11.34
2022-10-23T22:39:29.104Z,11.34
2022-10-23T22:41:56.483Z,11.37
2022-10-23T22:44:23.967Z,11.40
2022-10-23T22:46:52.550Z,11.39
2022-10-23T22:49:19.989Z,11.39
2022-10-23T22:51:50.108Z,11.36
2022-10-23T22:54:17.658Z,11.36
2022-10-23T22:56:46.971Z,11.35
2022-10-23T22:59:14.293Z,11.30
2022-10-23T23:01:44.370Z,11.35
2022-10-23T23:04:36.627Z,11.35
2022-10-23T23:07:00.361Z,11.33
2022-10-23T23:09:27.581Z,11.33
2022-10-23T23:11:57.902Z,11.34
2022-10-23T23:14:25.363Z,11.32
2022-10-23T23:16:56.409Z,11.33
2022-10-23T23:19:24.312Z,11.31
2022-10-23T23:21:58.315Z,11.29
2022-10-23T23:24:26.758Z,11.29
2022-10-23T23:26:57.906Z,11.27
2022-10-23T23:29:25.267Z,11.31
2022-10-23T23:31:52.818Z,11.29
2022-10-23T23:34:21.253Z,11.27
2022-10-23T23:36:51.047Z,11.28
2022-10-23T23:39:18.461Z,11.26
2022-10-23T23:41:46.150Z,11.23
2022-10-23T23:44:13.525Z,11.23
2022-10-23T23:46:42.842Z,11.23
2022-10-23T23:49:10.133Z,11.21
2022-10-23T23:51:38.024Z,11.20
2022-10-23T23:54:05.600Z,11.18
2022-10-23T23:56:32.959Z,11.18
2022-10-23T23:59:00.411Z,11.18
